Meteo Giornale » Osservazioni meteo Italia » Treviso-Istrana

ore: 22:55 - Osservazioni Meteo Treviso-Istrana
Lat. 45° 41' N Lon. 12° 6' E Alt. 45 metri s.l.m.

sereno Europe/Rome

26 °C

Sereno

Temp. 24 Ore

24 °C

34 °C

Nord

9.3 Km/h

Dew point 19 °C

Umidità 65 %

Visibilità  10 Km

Il sole sorge alle ore 06:16

Il sole tramonta alle ore 20:12

Data e Ora Cielo e Fenomeni T °C DP °C Um. % Pres. hPa Vis. km Vento km/h
Ieri h: 22:55 sereno Sereno 26 19 65 1015 10 N 9.3
Ieri h: 21:55 sereno Sereno 27 19 61 1014 10 N 9.3
Ieri h: 19:55 sereno Sereno 31 19 48 1013 10 N 0
Ieri h: 18:55 sereno Sereno 33 18 41 1013 10 SO 7.4
Ieri h: 17:55 sereno Sereno 34 19 41 1013 10 N 0
Ieri h: 16:55 sereno Sereno 34 17 36 1014 10 E 13
Ieri h: 15:55 sereno Sereno 34 17 36 1014 10 E 9.3
Ieri h: 14:55 sereno Sereno 34 17 36 1015 10 E/NE 13
Ieri h: 13:55 sereno Sereno 34 17 36 1015 10 E 14.8
Ieri h: 12:55 sereno Sereno 33 17 38 1015 10 E 18.5
Ieri h: 11:55 sereno Sereno 33 18 41 1015 10 E 14.8
Ieri h: 10:55 sereno Sereno 32 20 49 1016 10 E/NE 13
Ieri h: 09:55 sereno Sereno 30 20 55 1016 10 N 5.5
Ieri h: 08:55 sereno Sereno 28 20 61 1015 10 N 11.1
Ieri h: 07:55 sereno Sereno 25 20 73 1016 10 N 11.1
Ieri h: 06:55 sereno Sereno 24 19 73 1016 10 N 11.1
Ieri h: 05:55 sereno Sereno 24 19 73 1015 10 N 7.4
Ieri h: 04:55 sereno Sereno 24 19 73 1016 10 N 9.3
Ieri h: 03:55 sereno Sereno 24 20 78 1016 10 N 11.1
Ieri h: 02:55 sereno Sereno 25 19 69 1016 10 N 7.4
Ieri h: 01:55 sereno Sereno 25 20 73 1016 10 N 9.3
Ieri h: 00:55 sereno Sereno 26 19 65 1016 10 N/NE 9.3